Time;durP1;ratioP1;P1;durP2;ratioP2;P2;SDS_P1;SDS_P2;PMS_P1;PMS_P2;Temp;Humidity;BMP_temperature;BMP_pressure;BME280_temperature;BME280_humidity;BME280_pressure;Samples;Min_cycle;Max_cycle;Signal;HPM_P1;HPM_P2
2021/06/30 00:01:01;;;;;;;11.83;7.16;;;;;;;20.48;61.38;100467.61;440246;117;923141;-71
2021/06/30 00:02:05;;;;;;;11.65;6.49;;;;;;;20.46;61.42;100460.69;439651;120;922564;-69
2021/06/30 00:03:09;;;;;;;8.37;6.74;;;;;;;20.44;61.54;100463.77;440108;118;922796;-71
2021/06/30 00:04:12;;;;;;;5.95;5.34;;;;;;;20.43;61.59;100452.95;440938;118;925303;-70
2021/06/30 00:05:15;;;;;;;7.36;5.90;;;;;;;20.43;61.68;100456.55;440758;118;930477;-71
2021/06/30 00:06:21;;;;;;;8.73;6.81;;;;;;;20.43;61.68;100456.55;437566;119;922702;-71
2021/06/30 00:07:25;;;;;;;13.06;8.19;;;;;;;20.43;61.73;100447.42;440949;117;922729;-71
2021/06/30 00:08:28;;;;;;;13.04;11.59;;;;;;;20.40;61.81;100451.56;442225;119;930165;-71
2021/06/30 00:09:32;;;;;;;13.21;11.77;;;;;;;20.39;61.85;100445.23;444763;117;930394;-70
2021/06/30 00:10:37;;;;;;;16.30;12.11;;;;;;;20.39;61.87;100448.00;445299;117;930813;-70
2021/06/30 00:11:40;;;;;;;15.62;11.62;;;;;;;20.40;61.94;100446.86;448229;116;922603;-70
2021/06/30 00:12:44;;;;;;;12.73;11.51;;;;;;;20.41;61.94;100447.69;438141;118;930293;-71
2021/06/30 00:13:47;;;;;;;11.39;9.41;;;;;;;20.40;61.97;100446.86;447447;115;922608;-70
2021/06/30 00:14:51;;;;;;;7.87;7.07;;;;;;;20.39;61.99;100449.94;448298;116;924191;-70
2021/06/30 00:15:55;;;;;;;7.26;5.82;;;;;;;20.40;61.99;100446.03;437578;118;924530;-69
2021/06/30 00:16:59;;;;;;;6.37;5.39;;;;;;;20.39;61.99;100448.00;439400;119;924051;-71
2021/06/30 00:18:03;;;;;;;6.66;5.42;;;;;;;20.40;61.99;100446.03;448097;116;923102;-71
2021/06/30 00:19:08;;;;;;;6.20;4.91;;;;;;;20.40;62.00;100446.86;447766;116;924183;-71
2021/06/30 00:20:14;;;;;;;6.03;5.12;;;;;;;20.40;62.02;100446.86;448007;117;924414;-71
2021/06/30 00:21:17;;;;;;;5.31;4.91;;;;;;;20.39;62.00;100453.53;438995;118;922595;-71
2021/06/30 00:22:23;;;;;;;5.88;5.24;;;;;;;20.37;62.07;100447.44;447819;117;923884;-69
2021/06/30 00:23:27;;;;;;;6.94;5.42;;;;;;;20.34;62.10;100447.98;449185;116;924846;-71
2021/06/30 00:24:30;;;;;;;5.86;5.34;;;;;;;20.32;62.18;100455.77;447495;117;924416;-70
2021/06/30 00:25:34;;;;;;;7.14;5.10;;;;;;;20.28;62.27;100457.42;448750;116;923680;-70
2021/06/30 00:26:38;;;;;;;13.80;11.54;;;;;;;20.25;62.33;100459.91;447654;116;924485;-72
2021/06/30 00:27:44;;;;;;;24.98;21.10;;;;;;;20.22;62.43;100468.78;448041;116;922469;-70
2021/06/30 00:28:47;;;;;;;23.57;20.05;;;;;;;20.18;62.50;100460.19;438369;118;922593;-71
2021/06/30 00:29:51;;;;;;;29.05;21.32;;;;;;;20.15;62.61;100460.77;439013;120;924118;-71
2021/06/30 00:30:54;;;;;;;22.47;20.05;;;;;;;20.14;62.67;100466.58;441553;117;930543;-68
2021/06/30 00:31:58;;;;;;;26.62;21.41;;;;;;;20.12;62.72;100460.52;441462;119;931968;-72
2021/06/30 00:33:01;;;;;;;23.62;20.94;;;;;;;20.12;62.84;100463.28;442267;118;923173;-71
2021/06/30 00:34:05;;;;;;;21.21;18.03;;;;;;;20.10;62.93;100460.78;441722;117;926828;-71
2021/06/30 00:35:10;;;;;;;16.59;14.43;;;;;;;20.12;62.98;100461.34;438694;117;934514;-68
2021/06/30 00:36:15;;;;;;;14.39;12.98;;;;;;;20.13;62.97;100465.74;436948;118;931894;-70
2021/06/30 00:37:19;;;;;;;14.24;12.95;;;;;;;20.15;63.01;100465.47;437028;118;924062;-70
2021/06/30 00:38:23;;;;;;;13.16;11.92;;;;;;;20.15;62.94;100465.47;439252;118;924123;-70
2021/06/30 00:39:26;;;;;;;9.98;9.03;;;;;;;20.16;62.96;100467.97;439514;117;924085;-69
2021/06/30 00:40:31;;;;;;;8.76;7.96;;;;;;;20.16;62.93;100467.14;439876;119;924085;-70
2021/06/30 00:41:34;;;;;;;7.84;7.06;;;;;;;20.15;62.93;100477.37;439932;117;930484;-70
2021/06/30 00:42:37;;;;;;;6.11;5.51;;;;;;;20.12;62.97;100472.41;440201;117;932043;-69
2021/06/30 00:43:41;;;;;;;7.14;6.14;;;;;;;20.12;63.07;100474.36;447363;116;923108;-69
2021/06/30 00:44:45;;;;;;;6.73;5.06;;;;;;;20.12;63.16;100472.41;446604;116;924061;-70
2021/06/30 00:45:49;;;;;;;6.66;5.64;;;;;;;20.15;63.19;100469.08;439891;117;923003;-70
2021/06/30 00:46:52;;;;;;;4.84;4.40;;;;;;;20.18;63.16;100476.80;440557;117;924629;-70
2021/06/30 00:47:58;;;;;;;5.09;4.06;;;;;;;20.21;63.07;100478.20;440280;117;924199;-69
2021/06/30 00:49:05;;;;;;;6.01;4.57;;;;;;;20.22;62.99;100474.33;439785;118;924015;-70
2021/06/30 00:50:14;;;;;;;4.52;4.01;;;;;;;20.22;63.02;100466.84;446681;116;924671;-70
2021/06/30 00:51:18;;;;;;;4.11;3.66;;;;;;;20.18;63.03;100471.27;447544;116;922657;-70
2021/06/30 00:52:21;;;;;;;5.37;3.76;;;;;;;20.15;63.00;100473.78;447533;117;922532;-71
2021/06/30 00:53:25;;;;;;;4.86;4.02;;;;;;;20.10;63.05;100469.09;447365;116;930572;-71
2021/06/30 00:54:28;;;;;;;5.44;3.80;;;;;;;20.07;63.15;100466.86;447159;117;930555;-72
2021/06/30 00:55:32;;;;;;;5.48;3.87;;;;;;;20.04;63.26;100466.61;447512;116;922501;-70
2021/06/30 00:56:36;;;;;;;4.46;3.37;;;;;;;20.00;63.38;100460.81;447738;116;930533;-70
2021/06/30 00:57:42;;;;;;;4.11;3.46;;;;;;;19.99;63.50;100457.21;447415;117;922774;-70
2021/06/30 00:58:45;;;;;;;4.06;3.56;;;;;;;19.97;63.58;100458.59;448423;116;930587;-70
2021/06/30 00:59:48;;;;;;;4.82;2.97;;;;;;;19.98;63.63;100465.79;438697;118;923221;-71
2021/06/30 01:00:52;;;;;;;3.52;3.30;;;;;;;19.96;63.62;100463.29;446819;117;923063;-72
2021/06/30 01:01:55;;;;;;;3.91;3.53;;;;;;;19.95;63.65;100469.12;446779;117;930554;-72
2021/06/30 01:05:26;;;;;;;3.01;2.79;;;;;;;20.02;63.87;100466.05;472742;110;948303;-70
2021/06/30 01:06:30;;;;;;;3.14;2.53;;;;;;;19.87;63.96;100475.22;462631;113;923945;-70
2021/06/30 01:07:34;;;;;;;3.90;2.77;;;;;;;19.85;64.02;100466.34;461632;113;924141;-70
2021/06/30 01:08:37;;;;;;;3.68;3.01;;;;;;;19.84;64.08;100475.78;455026;114;924188;-70
2021/06/30 01:09:41;;;;;;;5.68;2.55;;;;;;;19.85;64.12;100471.88;455395;113;932061;-71
2021/06/30 01:10:44;;;;;;;3.96;2.45;;;;;;;19.86;64.21;100473.55;455844;114;933447;-71
2021/06/30 01:11:48;;;;;;;3.64;2.35;;;;;;;19.87;64.25;100473.28;455637;115;931965;-72
2021/06/30 01:12:51;;;;;;;4.33;2.40;;;;;;;19.89;64.24;100470.24;454861;114;924263;-71
2021/06/30 01:13:55;;;;;;;5.76;2.54;;;;;;;19.91;64.23;100473.53;454448;113;924068;-69
2021/06/30 01:15:05;;;;;;;4.29;2.50;;;;;;;19.92;64.18;100473.27;454335;114;924008;-69
2021/06/30 01:16:10;;;;;;;2.64;2.29;;;;;;;19.95;64.11;100475.50;452434;113;931731;-70
2021/06/30 01:17:14;;;;;;;2.98;2.44;;;;;;;19.97;64.05;100475.19;455844;114;924411;-70
2021/06/30 01:18:20;;;;;;;3.04;2.76;;;;;;;19.98;63.99;100477.69;456240;113;922469;-68
2021/06/30 01:19:26;;;;;;;2.63;2.12;;;;;;;19.98;63.99;100477.69;456270;114;933053;-70
2021/06/30 01:20:30;;;;;;;3.82;3.06;;;;;;;19.99;64.00;100476.59;456350;113;924104;-68
2021/06/30 01:21:33;;;;;;;4.53;2.52;;;;;;;20.01;64.02;100479.08;456059;113;926965;-70
2021/06/30 01:22:39;;;;;;;4.37;3.53;;;;;;;20.01;63.98;100479.08;455826;115;925880;-71
2021/06/30 01:23:43;;;;;;;5.27;3.55;;;;;;;20.04;63.90;100475.74;455962;113;923999;-71
2021/06/30 01:24:50;;;;;;;6.48;4.55;;;;;;;20.04;63.84;100481.28;455626;113;924065;-71
2021/06/30 01:25:54;;;;;;;4.73;4.06;;;;;;;20.07;63.75;100477.94;455716;113;932320;-71
2021/06/30 01:26:58;;;;;;;5.27;4.55;;;;;;;20.09;63.69;100480.44;455241;114;924556;-71
2021/06/30 01:28:02;;;;;;;5.54;4.84;;;;;;;20.08;63.66;100485.14;455254;114;932003;-71
2021/06/30 01:29:05;;;;;;;6.63;5.29;;;;;;;20.10;63.62;100477.39;454816;114;924604;-71
2021/06/30 01:30:11;;;;;;;5.06;4.56;;;;;;;20.11;63.49;100486.53;455208;113;922722;-70
2021/06/30 01:31:15;;;;;;;6.48;5.71;;;;;;;20.12;63.38;100479.89;455367;113;922549;-71
2021/06/30 01:32:20;;;;;;;6.48;5.87;;;;;;;20.11;63.32;100487.36;453770;113;924120;-70
2021/06/30 01:33:24;;;;;;;6.49;5.79;;;;;;;20.12;63.27;100486.27;455305;113;925322;-71
2021/06/30 01:34:27;;;;;;;6.76;6.09;;;;;;;20.12;63.25;100486.27;453058;115;924100;-70
2021/06/30 01:35:31;;;;;;;6.63;6.09;;;;;;;20.12;63.21;100494.56;453531;114;926355;-70
2021/06/30 01:36:46;;;;;;;8.85;6.18;;;;;;;20.11;63.26;100486.53;456357;113;926813;-69
2021/06/30 01:37:50;;;;;;;7.42;6.48;;;;;;;20.09;63.27;100489.57;457010;114;922610;-71
2021/06/30 01:38:53;;;;;;;7.99;6.21;;;;;;;20.08;63.30;100484.30;455550;115;924617;-69
2021/06/30 01:39:57;;;;;;;6.87;6.28;;;;;;;20.06;63.35;100494.84;456404;113;925825;-71
2021/06/30 01:41:00;;;;;;;7.64;6.20;;;;;;;20.03;63.36;100495.39;456071;115;924074;-69
2021/06/30 01:42:04;;;;;;;6.12;5.62;;;;;;;20.01;63.39;100490.16;456532;115;933619;-70
2021/06/30 01:43:08;;;;;;;5.66;5.11;;;;;;;19.97;63.40;100489.03;455489;114;931968;-72
2021/06/30 01:44:12;;;;;;;6.03;5.30;;;;;;;19.96;63.36;100488.20;455187;115;924172;-69
2021/06/30 01:45:16;;;;;;;6.35;5.33;;;;;;;19.96;63.34;100490.13;455781;113;930467;-69
2021/06/30 01:46:24;;;;;;;6.45;5.43;;;;;;;19.95;63.31;100485.73;456216;114;924136;-70
2021/06/30 01:47:28;;;;;;;4.77;4.37;;;;;;;19.93;63.33;100488.77;455968;113;923971;-71
2021/06/30 01:48:31;;;;;;;7.89;5.25;;;;;;;19.93;63.33;100487.94;456410;113;924038;-70
2021/06/30 01:49:40;;;;;;;7.67;5.37;;;;;;;19.94;63.34;100484.91;455994;115;931998;-70
2021/06/30 01:50:41;;;;;;;5.75;5.17;;;;;;;19.93;63.38;100485.17;455964;113;925587;-72
2021/06/30 01:51:44;;;;;;;8.06;5.22;;;;;;;19.93;63.41;100491.54;455015;113;925838;-69
2021/06/30 01:52:48;;;;;;;6.72;5.26;;;;;;;19.91;63.48;100487.38;454448;113;926140;-71
2021/06/30 01:53:56;;;;;;;5.91;5.37;;;;;;;19.90;63.49;100496.81;455674;114;924035;-70
2021/06/30 01:55:01;;;;;;;5.68;5.05;;;;;;;19.88;63.51;100499.84;455703;113;933748;-69
2021/06/30 01:56:04;;;;;;;8.28;5.18;;;;;;;19.86;63.55;100496.52;455345;113;924496;-71
2021/06/30 01:57:08;;;;;;;5.10;4.65;;;;;;;19.86;63.59;100492.92;451845;114;923986;-70
2021/06/30 01:58:11;;;;;;;5.54;4.70;;;;;;;19.84;63.67;100498.75;454191;114;924569;-69
2021/06/30 01:59:15;;;;;;;6.32;4.28;;;;;;;19.84;63.71;100497.92;455282;113;924030;-68
2021/06/30 02:00:21;;;;;;;4.74;4.33;;;;;;;19.82;63.78;100494.59;456941;113;930461;-71
2021/06/30 02:01:24;;;;;;;5.14;4.36;;;;;;;19.80;63.82;100503.16;457105;114;922520;-70
2021/06/30 02:02:28;;;;;;;6.12;4.17;;;;;;;19.80;63.91;100496.80;456318;114;922437;-71
2021/06/30 02:03:32;;;;;;;5.04;4.15;;;;;;;19.79;63.94;100492.39;456917;115;922402;-70
2021/06/30 02:04:35;;;;;;;10.31;3.84;;;;;;;19.78;63.98;100493.49;449888;116;922615;-71
2021/06/30 02:05:39;;;;;;;5.45;3.56;;;;;;;19.78;64.08;100504.56;448409;115;930835;-71
2021/06/30 02:06:44;;;;;;;4.17;3.45;;;;;;;19.77;64.13;100506.50;455258;114;922862;-71
2021/06/30 02:07:51;;;;;;;4.72;3.35;;;;;;;19.78;64.17;100496.27;455129;114;922918;-71
2021/06/30 02:08:57;;;;;;;3.78;3.41;;;;;;;19.79;64.19;100497.92;454265;114;923030;-70
2021/06/30 02:10:00;;;;;;;4.58;3.28;;;;;;;19.81;64.17;100498.46;454827;114;922692;-70
2021/06/30 02:11:04;;;;;;;5.03;3.39;;;;;;;19.83;64.09;100497.09;453849;114;925625;-71
2021/06/30 02:12:07;;;;;;;3.59;3.10;;;;;;;19.86;64.06;100498.45;454834;115;930190;-69
2021/06/30 02:13:12;;;;;;;5.54;3.56;;;;;;;19.88;63.99;100499.84;453311;114;923982;-70
2021/06/30 02:14:15;;;;;;;3.61;3.18;;;;;;;19.91;63.96;100495.67;454540;114;924148;-71
2021/06/30 02:15:28;;;;;;;6.62;3.77;;;;;;;19.93;63.93;100501.77;453320;114;924056;-70
2021/06/30 02:16:33;;;;;;;5.12;3.47;;;;;;;19.94;63.90;100495.14;452950;116;922518;-71
2021/06/30 02:17:36;;;;;;;4.53;3.12;;;;;;;19.97;63.90;100500.10;445897;116;924073;-71
2021/06/30 02:18:40;;;;;;;4.19;3.09;;;;;;;19.97;63.94;100498.16;446573;116;924061;-71
2021/06/30 02:19:44;;;;;;;8.33;3.74;;;;;;;20.01;63.92;100498.45;453149;115;924571;-70
2021/06/30 02:20:48;;;;;;;5.91;3.26;;;;;;;20.05;63.87;100499.55;454005;116;931991;-70
2021/06/30 02:21:52;;;;;;;3.86;3.48;;;;;;;20.08;63.77;100496.21;454480;114;925659;-68
2021/06/30 02:22:56;;;;;;;5.49;3.34;;;;;;;20.08;63.67;100504.52;454044;114;924591;-70
2021/06/30 02:24:01;;;;;;;6.55;3.25;;;;;;;20.07;63.66;100502.05;453309;115;924288;-73
2021/06/30 02:25:07;;;;;;;6.29;3.79;;;;;;;20.07;63.66;100500.08;453993;114;926319;-70
2021/06/30 02:26:11;;;;;;;6.23;3.32;;;;;;;20.08;63.67;100503.68;453832;114;924580;-70
2021/06/30 02:27:15;;;;;;;5.59;3.32;;;;;;;20.08;63.66;100498.98;453215;115;926519;-70
2021/06/30 02:28:18;;;;;;;5.24;3.56;;;;;;;20.09;63.69;100499.81;452482;114;924050;-68
2021/06/30 02:29:22;;;;;;;5.44;3.40;;;;;;;20.10;63.65;100496.77;453165;115;932014;-70
2021/06/30 02:30:29;;;;;;;5.62;3.53;;;;;;;20.12;63.65;100502.87;454178;115;922687;-71
2021/06/30 02:31:33;;;;;;;5.52;2.86;;;;;;;20.13;63.63;100501.73;453680;115;924512;-70
2021/06/30 02:32:36;;;;;;;3.65;3.29;;;;;;;20.15;63.66;100496.76;454005;115;924106;-70
2021/06/30 02:33:40;;;;;;;8.87;3.14;;;;;;;20.18;63.62;100504.48;453898;116;922485;-70
2021/06/30 02:34:43;;;;;;;8.63;3.36;;;;;;;20.20;63.51;100501.45;454271;114;931966;-71
2021/06/30 02:35:47;;;;;;;3.56;3.24;;;;;;;20.21;63.48;100503.95;453973;114;924565;-71
2021/06/30 02:36:50;;;;;;;4.16;3.74;;;;;;;20.22;63.44;100500.07;453722;115;924577;-71
2021/06/30 02:37:56;;;;;;;4.97;3.36;;;;;;;20.28;63.29;100498.95;452908;115;932163;-71
2021/06/30 02:38:59;;;;;;;7.22;3.52;;;;;;;20.49;62.91;100493.38;452384;114;923801;-69
2021/06/30 02:40:06;;;;;;;5.28;3.41;;;;;;;20.56;62.76;100494.74;453605;115;925663;-69
2021/06/30 02:41:10;;;;;;;5.58;3.22;;;;;;;20.49;62.89;100504.45;452539;114;931940;-71
2021/06/30 02:42:13;;;;;;;5.25;3.39;;;;;;;20.45;62.95;100489.52;451535;115;924548;-69
2021/06/30 02:43:17;;;;;;;4.90;3.21;;;;;;;20.45;62.99;100492.28;451574;114;930423;-69
2021/06/30 02:44:21;;;;;;;5.54;3.74;;;;;;;20.45;63.08;100484.81;454989;114;924100;-71
2021/06/30 02:45:24;;;;;;;5.96;3.45;;;;;;;20.48;63.12;100484.23;454350;115;922524;-71
2021/06/30 02:46:30;;;;;;;8.28;3.53;;;;;;;20.49;63.06;100485.90;454675;116;927287;-69
2021/06/30 02:47:33;;;;;;;5.03;3.67;;;;;;;20.51;62.96;100486.42;454164;114;924215;-71
2021/06/30 02:48:37;;;;;;;11.56;3.36;;;;;;;20.51;62.78;100488.39;453887;114;931984;-70
2021/06/30 02:49:40;;;;;;;6.89;3.92;;;;;;;20.49;62.68;100494.20;454298;114;931967;-71
2021/06/30 02:50:44;;;;;;;5.72;3.62;;;;;;;20.47;62.71;100490.05;454324;115;925116;-69
2021/06/30 02:51:47;;;;;;;5.98;4.20;;;;;;;20.43;62.77;100503.64;453111;115;924180;-70
2021/06/30 02:52:52;;;;;;;4.78;3.56;;;;;;;20.39;62.82;100494.25;453751;114;930584;-71
2021/06/30 02:53:55;;;;;;;6.21;3.52;;;;;;;20.35;62.90;100502.27;454105;114;922523;-70
2021/06/30 02:54:59;;;;;;;6.47;3.65;;;;;;;20.34;62.95;100505.34;454780;115;922439;-71
2021/06/30 02:56:02;;;;;;;9.72;3.98;;;;;;;20.33;63.06;100507.28;453396;115;922628;-71
2021/06/30 02:57:06;;;;;;;4.51;3.09;;;;;;;20.33;63.15;100510.05;453607;114;923245;-70
2021/06/30 02:58:10;;;;;;;6.72;3.69;;;;;;;20.35;63.17;100512.51;453929;114;930714;-71
2021/06/30 02:59:14;;;;;;;6.59;4.12;;;;;;;20.36;63.17;100503.93;454686;116;930496;-70
2021/06/30 03:00:24;;;;;;;4.22;3.30;;;;;;;20.38;63.14;100500.89;452685;115;923257;-70
2021/06/30 03:01:27;;;;;;;5.64;3.78;;;;;;;20.41;63.18;100503.08;451929;114;922613;-69
2021/06/30 03:02:31;;;;;;;4.01;3.36;;;;;;;20.47;63.08;100501.13;452312;114;922600;-69
2021/06/30 03:03:34;;;;;;;6.56;4.08;;;;;;;20.50;62.99;100492.27;454466;114;923038;-70
2021/06/30 03:04:38;;;;;;;4.89;3.59;;;;;;;20.53;62.78;100497.23;452732;115;922457;-71
2021/06/30 03:05:41;;;;;;;3.33;3.09;;;;;;;20.56;62.69;100499.45;454389;114;922606;-71
2021/06/30 03:06:45;;;;;;;3.87;2.97;;;;;;;20.59;62.62;100504.41;455435;114;923168;-71
2021/06/30 03:07:50;;;;;;;6.35;3.51;;;;;;;20.61;62.62;100507.73;456264;115;930543;-69
2021/06/30 03:08:54;;;;;;;3.58;3.28;;;;;;;20.61;62.59;100502.20;456746;114;922937;-71
2021/06/30 03:09:57;;;;;;;3.63;3.27;;;;;;;20.62;62.54;100503.86;456038;113;924041;-70
2021/06/30 03:11:01;;;;;;;3.74;3.12;;;;;;;20.64;62.47;100498.84;456347;114;931983;-72
2021/06/30 03:12:04;;;;;;;5.42;3.02;;;;;;;20.67;62.37;100495.53;455815;113;924072;-69
2021/06/30 03:13:08;;;;;;;3.57;3.26;;;;;;;20.68;62.31;100497.16;456067;114;923980;-72
2021/06/30 03:14:11;;;;;;;5.03;3.57;;;;;;;20.71;62.21;100499.38;455658;113;933489;-71
2021/06/30 03:15:15;;;;;;;3.38;2.71;;;;;;;20.72;62.16;100496.34;455890;114;932105;-69
2021/06/30 03:16:20;;;;;;;7.21;3.86;;;;;;;20.74;62.07;100496.03;455564;115;924541;-71
2021/06/30 03:17:24;;;;;;;5.13;3.52;;;;;;;20.76;62.00;100499.36;455561;113;924020;-72
2021/06/30 03:18:27;;;;;;;3.54;3.14;;;;;;;20.77;61.95;100498.25;454801;113;924150;-71
2021/06/30 03:19:31;;;;;;;4.84;3.62;;;;;;;20.76;61.91;100505.73;454514;115;924566;-70
2021/06/30 03:20:34;;;;;;;5.06;3.59;;;;;;;20.76;61.91;100505.73;454515;115;925651;-71
2021/06/30 03:21:38;;;;;;;4.59;3.19;;;;;;;20.76;61.86;100502.95;454694;115;933322;-70
2021/06/30 03:22:42;;;;;;;6.21;3.07;;;;;;;20.78;61.87;100503.48;455292;113;929530;-70
2021/06/30 03:23:46;;;;;;;5.52;3.52;;;;;;;20.80;61.89;100505.98;454026;115;926600;-70
2021/06/30 03:24:49;;;;;;;5.40;3.41;;;;;;;20.80;62.00;100509.58;454485;114;924727;-69
2021/06/30 03:25:53;;;;;;;5.11;3.57;;;;;;;20.82;62.07;100512.08;454680;113;924146;-72
2021/06/30 03:26:57;;;;;;;4.84;3.45;;;;;;;20.83;62.02;100505.43;456156;114;931958;-72
2021/06/30 03:28:00;;;;;;;12.09;3.40;;;;;;;20.84;62.01;100515.37;447728;114;930575;-71
2021/06/30 03:29:04;;;;;;;8.00;2.62;;;;;;;20.86;62.02;100504.02;448246;116;923226;-71
2021/06/30 03:30:10;;;;;;;5.39;3.24;;;;;;;20.87;62.03;100506.52;456025;114;931991;-71
2021/06/30 03:31:13;;;;;;;7.79;3.62;;;;;;;20.87;62.07;100514.83;456266;114;922749;-71
2021/06/30 03:32:16;;;;;;;4.76;3.54;;;;;;;20.88;62.14;100513.72;446825;116;924137;-72
2021/06/30 03:33:20;;;;;;;6.26;3.61;;;;;;;20.90;62.14;100511.47;445570;116;923306;-71
2021/06/30 03:34:23;;;;;;;6.92;3.93;;;;;;;20.90;61.86;100514.23;455527;114;924155;-72
2021/06/30 03:35:27;;;;;;;13.09;4.07;;;;;;;20.90;61.86;100514.23;455380;113;931956;-70
2021/06/30 03:36:31;;;;;;;10.48;3.72;;;;;;;20.90;61.90;100513.41;455195;114;931938;-69
2021/06/30 03:37:34;;;;;;;9.42;3.72;;;;;;;20.91;62.00;100513.13;455526;115;925417;-69
2021/06/30 03:38:38;;;;;;;15.28;3.88;;;;;;;20.92;62.08;100509.25;455053;113;924002;-70
2021/06/30 03:39:41;;;;;;;5.54;3.44;;;;;;;20.94;62.07;100504.27;455168;113;924230;-70
2021/06/30 03:40:45;;;;;;;7.93;3.73;;;;;;;;;;455457;112;924101;-70
2021/06/30 03:41:48;;;;;;;6.12;3.19;;;;;;;20.97;62.09;100514.77;455448;114;931948;-69
2021/06/30 03:42:52;;;;;;;5.32;2.53;;;;;;;21.00;62.11;100516.16;456324;114;933317;-68
2021/06/30 03:43:56;;;;;;;6.67;3.34;;;;;;;21.04;62.08;100512.52;455434;113;924296;-69
2021/06/30 03:44:59;;;;;;;3.41;2.66;;;;;;;21.09;62.05;100517.20;454763;113;931844;-68
2021/06/30 03:46:03;;;;;;;3.76;3.36;;;;;;;21.12;61.97;100520.22;454750;114;924063;-69
2021/06/30 03:47:07;;;;;;;9.88;4.49;;;;;;;21.14;61.84;100520.80;453275;113;931962;-71
2021/06/30 03:48:10;;;;;;;13.06;4.85;;;;;;;21.18;61.63;100516.34;454466;113;922707;-71
2021/06/30 03:49:14;;;;;;;11.29;4.11;;;;;;;21.21;61.41;100513.01;457424;113;930423;-72
2021/06/30 03:50:18;;;;;;;11.36;3.77;;;;;;;21.25;61.37;100520.74;456458;115;930728;-71
2021/06/30 03:51:22;;;;;;;12.50;4.42;;;;;;;21.27;61.36;100519.36;457024;115;930416;-71
2021/06/30 03:52:26;;;;;;;12.31;4.80;;;;;;;21.30;61.30;100518.77;456668;114;930452;-70
2021/06/30 03:53:30;;;;;;;13.25;4.55;;;;;;;21.34;61.28;100524.55;456663;114;923075;-70
2021/06/30 03:54:33;;;;;;;16.82;4.66;;;;;;;21.37;61.20;100518.45;456783;114;922645;-69
2021/06/30 03:55:37;;;;;;;13.64;4.45;;;;;;;21.39;61.22;100519.00;456780;114;922765;-70
2021/06/30 03:56:40;;;;;;;8.58;4.28;;;;;;;21.40;61.22;100518.69;455875;113;930802;-69
2021/06/30 03:57:44;;;;;;;10.89;4.79;;;;;;;21.43;61.24;100515.36;456051;114;930492;-69
2021/06/30 03:58:47;;;;;;;16.41;5.09;;;;;;;21.47;61.22;100512.83;456412;115;922936;-70
2021/06/30 03:59:51;;;;;;;6.62;4.17;;;;;;;21.51;61.18;100514.73;456558;113;923016;-69
2021/06/30 04:00:55;;;;;;;11.01;4.32;;;;;;;21.56;61.01;100520.23;454526;113;924050;-70
2021/06/30 04:01:58;;;;;;;10.48;4.03;;;;;;;21.61;60.93;100517.42;455291;113;923057;-71
2021/06/30 04:03:02;;;;;;;7.73;3.71;;;;;;;21.66;60.91;100518.52;455662;114;922592;-69
2021/06/30 04:04:07;;;;;;;8.69;3.74;;;;;;;21.69;60.83;100524.31;455634;115;922894;-70
2021/06/30 04:05:10;;;;;;;11.46;3.85;;;;;;;21.73;60.73;100514.28;455101;115;924223;-70
2021/06/30 04:06:15;;;;;;;7.51;3.34;;;;;;;21.76;60.73;100515.66;455178;113;922678;-71
2021/06/30 04:07:18;;;;;;;6.85;4.14;;;;;;;21.80;60.61;100516.73;454466;114;932029;-73
2021/06/30 04:08:22;;;;;;;12.87;4.71;;;;;;;21.83;60.52;100518.94;455366;115;932994;-74
2021/06/30 04:09:25;;;;;;;8.44;4.62;;;;;;;21.86;60.49;100518.34;454101;113;924091;-71
2021/06/30 04:10:30;;;;;;;7.15;4.03;;;;;;;21.89;60.42;100524.13;456337;113;922627;-72
2021/06/30 04:11:34;;;;;;;5.99;3.90;;;;;;;21.93;60.39;100519.67;455784;114;931978;-72
2021/06/30 04:12:37;;;;;;;10.82;4.01;;;;;;;21.96;60.35;100527.44;456436;113;931909;-70
2021/06/30 04:13:41;;;;;;;6.19;3.71;;;;;;;21.98;60.30;100527.16;456282;113;932542;-71
2021/06/30 04:14:45;;;;;;;4.71;3.74;;;;;;;21.99;60.26;100523.27;455012;113;933106;-72
2021/06/30 04:15:48;;;;;;;8.16;4.24;;;;;;;22.00;60.20;100522.12;456014;113;924278;-74
2021/06/30 04:16:52;;;;;;;6.72;3.63;;;;;;;22.01;60.23;100521.00;455945;114;933762;-72
2021/06/30 04:17:58;;;;;;;4.11;3.61;;;;;;;22.00;60.29;100520.17;455366;113;931913;-71
2021/06/30 04:19:00;;;;;;;5.10;3.51;;;;;;;21.99;60.40;100526.88;455123;113;924041;-71
2021/06/30 04:20:07;;;;;;;5.37;3.46;;;;;;;21.98;60.48;100525.20;456070;113;923881;-71
2021/06/30 04:21:10;;;;;;;7.31;3.72;;;;;;;21.95;60.52;100523.00;456293;113;930391;-70
2021/06/30 04:22:13;;;;;;;6.93;3.45;;;;;;;21.93;60.63;100524.39;455784;114;926753;-71
2021/06/30 04:23:17;;;;;;;8.64;3.49;;;;;;;21.91;60.73;100523.84;455764;113;924491;-71
2021/06/30 04:24:20;;;;;;;7.99;3.81;;;;;;;21.89;60.86;100531.63;455015;113;925433;-70
2021/06/30 04:25:24;;;;;;;7.04;3.87;;;;;;;21.86;60.92;100530.28;455490;113;925368;-74
2021/06/30 04:26:29;;;;;;;5.61;3.57;;;;;;;21.85;60.99;100534.16;454443;115;927099;-75
2021/06/30 04:27:33;;;;;;;14.90;3.95;;;;;;;21.84;61.11;100534.45;453274;113;924191;-69
2021/06/30 04:28:37;;;;;;;9.14;4.28;;;;;;;21.81;61.24;100527.55;453456;114;931945;-73
2021/06/30 04:29:41;;;;;;;13.19;3.84;;;;;;;21.81;61.31;100524.77;454741;115;925558;-70
2021/06/30 04:30:45;;;;;;;9.55;4.12;;;;;;;21.81;61.44;100529.48;453689;113;926120;-74
2021/06/30 04:31:48;;;;;;;13.85;4.59;;;;;;;21.81;61.55;100527.55;453061;114;926120;-71
2021/06/30 04:32:51;;;;;;;12.69;4.71;;;;;;;21.82;61.63;100531.98;453638;114;924138;-71
2021/06/30 04:33:55;;;;;;;11.84;4.87;;;;;;;21.83;61.70;100532.81;456623;114;924126;-70
2021/06/30 04:34:59;;;;;;;10.72;4.91;;;;;;;21.84;61.67;100532.50;456461;113;931966;-70
2021/06/30 04:36:03;;;;;;;13.23;4.90;;;;;;;21.83;61.67;100530.84;455084;113;923866;-71
2021/06/30 04:37:06;;;;;;;15.00;4.88;;;;;;;21.84;61.76;100532.50;455585;113;933099;-70
2021/06/30 04:38:10;;;;;;;11.52;4.79;;;;;;;21.85;61.95;100533.33;456377;115;924660;-73
2021/06/30 04:39:15;;;;;;;13.92;4.52;;;;;;;21.86;62.05;100530.28;455638;113;924106;-72
2021/06/30 04:40:19;;;;;;;9.27;4.52;;;;;;;21.86;62.00;100530.28;455231;113;931958;-72
2021/06/30 04:41:23;;;;;;;7.37;3.86;;;;;;;21.86;62.27;100535.83;455417;113;923394;-70
2021/06/30 04:42:26;;;;;;;10.24;4.35;;;;;;;21.86;61.96;100526.67;455524;114;930557;-70
2021/06/30 04:43:30;;;;;;;12.74;4.48;;;;;;;21.86;61.96;100526.67;456513;114;930499;-69
2021/06/30 04:44:33;;;;;;;11.07;4.70;;;;;;;21.87;62.04;100533.88;455990;113;923110;-71
2021/06/30 04:45:37;;;;;;;17.49;4.63;;;;;;;21.89;62.13;100532.45;456148;113;922671;-70
2021/06/30 04:46:40;;;;;;;13.41;4.08;;;;;;;21.91;62.06;100534.95;456185;114;922732;-71
2021/06/30 04:47:44;;;;;;;9.03;4.22;;;;;;;21.94;62.09;100537.99;455837;114;922577;-70
2021/06/30 04:48:47;;;;;;;16.55;4.30;;;;;;;21.97;62.03;100533.82;455341;113;922650;-69
2021/06/30 04:49:51;;;;;;;12.69;4.05;;;;;;;22.00;61.97;100534.05;455227;113;931103;-69
2021/06/30 04:50:55;;;;;;;12.53;4.15;;;;;;;22.03;62.03;100532.66;454705;113;923099;-71
2021/06/30 04:51:58;;;;;;;14.16;4.34;;;;;;;22.07;62.02;100536.50;454429;114;930589;-72
2021/06/30 04:53:02;;;;;;;8.91;4.26;;;;;;;22.11;62.06;100536.77;452361;115;922707;-71
2021/06/30 04:54:05;;;;;;;8.68;3.58;;;;;;;22.13;62.15;100538.11;455408;114;930939;-68
2021/06/30 04:55:09;;;;;;;8.66;3.37;;;;;;;22.17;62.31;100539.17;455782;113;923040;-69
2021/06/30 04:56:13;;;;;;;8.41;3.94;;;;;;;22.21;62.33;100536.66;455682;114;923101;-69